WARR/SUB METAR and TAF weather

Enter ICAO airport designator
Station Type Date Time Source
WARR METAR 2022/12/04 04:30 UTC NOAA

WARR 040430Z 18004KT 9999 SCT020 28/27 Q1008 NOSIG


Station Type Date Time Source
WARR Decoded METAR 2022/12/04 04:30 UTC NOAA

Station name not available
Dec 03, 2022 - 11:30 PM EST / 2022.12.04 0430 UTC
Wind: from the S (180 degrees) at 5 MPH (4 KT):0
Visibility: greater than 7 mile(s):0
Sky conditions: partly cloudy
Temperature: 82 F (28 C)
Dew Point: 80 F (27 C)
Relative Humidity: 94%
Pressure (altimeter): 29.77 in. Hg (1008 hPa)
ob: WARR 040430Z 18004KT 9999 SCT020 28/27 Q1008 NOSIG
cycle: 4

Station Type Date Time Source
WARR TAF 2022/12/03 18:12 UTC NOAA

TAF WARR 031700Z 0318/0418 25005KT 4000 HZ FEW020
BECMG 0400/0402 08010KT 9999 NSW PROB40
TEMPO 0407/0411 4000 TSRA SCT018

Example: see airport list